Webcam Flughafen St.Gallen-Altenrhein

Live-Bilder und Zeitraffer LSZR / ACH.

 

Live aus Altenrhein
LIVE
LSZR 060050Z AUTO 25004KT 200V300 CAVOK 23/15 Q1017
Zeitraffer heute
2020-07-06 00:00:00
LSZR 052150Z AUTO VRB03KT 9999 SCT050 20/17 Q1017